createdAt,value
2023-09-08T00:00:18.215Z,91.887500
2023-09-08T00:05:18.243Z,92.487500
2023-09-08T00:10:18.000Z,92.366667
2023-09-08T00:15:18.537Z,92.428000
2023-09-08T00:20:18.023Z,92.770833
2023-09-08T00:25:18.489Z,92.170833
2023-09-08T00:30:17.939Z,92.491667
2023-09-08T00:35:17.944Z,92.145833
2023-09-08T00:40:17.820Z,92.150000
2023-09-08T00:45:18.004Z,92.350000
2023-09-08T00:50:18.065Z,92.987500
2023-09-08T00:55:18.180Z,93.020833
2023-09-08T01:00:17.832Z,92.308333
2023-09-08T01:05:17.913Z,92.837500
2023-09-08T01:10:17.883Z,93.183333
2023-09-08T01:15:18.024Z,93.158333
2023-09-08T01:20:18.062Z,92.700000
2023-09-08T01:25:17.811Z,92.366667
2023-09-08T01:30:17.934Z,92.908333
2023-09-08T01:35:17.885Z,93.275000
2023-09-08T01:40:17.843Z,92.587500
2023-09-08T01:45:17.911Z,92.808333
2023-09-08T01:50:18.080Z,93.300000
2023-09-08T01:55:17.945Z,93.354167
2023-09-08T02:00:17.946Z,93.225000
2023-09-08T02:05:18.099Z,92.637500
2023-09-08T02:10:17.820Z,92.825000
2023-09-08T02:15:17.980Z,93.312500
2023-09-08T02:20:18.055Z,92.795833
2023-09-08T02:25:17.827Z,93.183333
2023-09-08T02:30:17.974Z,93.458333
2023-09-08T02:35:18.049Z,93.248000
2023-09-08T02:40:18.073Z,92.783333
2023-09-08T02:45:17.942Z,93.083333
2023-09-08T02:50:17.983Z,93.091667
2023-09-08T02:55:17.784Z,93.300000
2023-09-08T03:00:17.752Z,93.483333
2023-09-08T03:05:17.921Z,93.258333
2023-09-08T03:10:17.834Z,92.933333
2023-09-08T03:15:17.823Z,93.220833
2023-09-08T03:20:18.172Z,93.254167
2023-09-08T03:25:17.791Z,93.425000
2023-09-08T03:30:18.315Z,93.379167
2023-09-08T03:35:17.857Z,93.383333
2023-09-08T03:40:18.114Z,93.325000
2023-09-08T03:45:18.309Z,93.325000
2023-09-08T03:50:18.257Z,93.316667
2023-09-08T03:55:18.271Z,93.258333
2023-09-08T04:00:18.085Z,93.575000
2023-09-08T04:05:17.843Z,93.508333
2023-09-08T04:10:18.357Z,93.172000
2023-09-08T04:15:17.989Z,93.591667
2023-09-08T04:20:18.075Z,93.537500
2023-09-08T04:25:17.711Z,93.483333
2023-09-08T04:30:17.913Z,93.487500
2023-09-08T04:35:18.190Z,93.483333
2023-09-08T04:40:17.748Z,93.475000
2023-09-08T04:45:17.879Z,93.566667
2023-09-08T04:50:17.855Z,93.495833
2023-09-08T04:55:17.773Z,93.662500
2023-09-08T05:00:17.955Z,93.700000
2023-09-08T05:05:17.950Z,93.516667
2023-09-08T05:10:18.142Z,93.633333
2023-09-08T05:15:17.905Z,93.800000
2023-09-08T05:20:17.978Z,93.925000
2023-09-08T05:25:18.069Z,93.987500
2023-09-08T05:30:17.878Z,93.952000
2023-09-08T05:35:18.216Z,93.991667
2023-09-08T05:40:17.989Z,94.075000
2023-09-08T05:45:18.409Z,94.083333
2023-09-08T05:50:17.793Z,94.066667
2023-09-08T05:55:17.835Z,94.108333
2023-09-08T06:00:17.786Z,94.108333
2023-09-08T06:05:17.704Z,94.108333
2023-09-08T06:10:17.942Z,94.233333
2023-09-08T06:15:17.868Z,94.154167
2023-09-08T06:20:18.030Z,94.170833
2023-09-08T06:25:17.759Z,93.883333
2023-09-08T06:30:17.940Z,92.966667
2023-09-08T06:35:18.018Z,92.625000
2023-09-08T06:40:17.800Z,92.075000
2023-09-08T06:45:17.720Z,91.833333
2023-09-08T06:50:17.831Z,91.120833
2023-09-08T06:55:17.962Z,89.779167
2023-09-08T07:00:18.607Z,87.466667
2023-09-08T07:05:18.149Z,86.383333
2023-09-08T07:10:18.113Z,84.795833
2023-09-08T07:15:18.025Z,82.533333
2023-09-08T07:20:18.614Z,81.445833
2023-09-08T07:25:18.224Z,80.675000
2023-09-08T07:30:17.942Z,78.929167
2023-09-08T07:35:18.270Z,78.183333
2023-09-08T07:40:17.925Z,75.962500
2023-09-08T07:45:18.117Z,74.191667
2023-09-08T07:50:17.955Z,72.741667
2023-09-08T07:55:18.332Z,71.183333
2023-09-08T08:00:17.798Z,70.054167
2023-09-08T08:05:18.001Z,67.041667
2023-09-08T08:10:17.812Z,64.150000
2023-09-08T08:15:17.955Z,63.683333
2023-09-08T08:20:18.266Z,62.483333
2023-09-08T08:25:17.875Z,61.816667
2023-09-08T08:30:18.215Z,58.883333
2023-09-08T08:35:17.874Z,58.020833
2023-09-08T08:40:17.932Z,56.983333
2023-09-08T08:45:17.731Z,56.400000
2023-09-08T08:50:18.123Z,55.037500
2023-09-08T08:55:17.703Z,55.025000
2023-09-08T09:00:17.891Z,54.716667
2023-09-08T09:05:17.862Z,54.566667
2023-09-08T09:10:17.786Z,55.204167
2023-09-08T09:15:18.140Z,54.150000
2023-09-08T09:20:18.550Z,52.887500
2023-09-08T09:25:17.516Z,50.262500
2023-09-08T09:30:17.531Z,49.532000
2023-09-08T09:35:17.938Z,48.640000
2023-09-08T09:40:18.227Z,46.450000
2023-09-08T09:45:17.863Z,42.145833
2023-09-08T09:50:17.958Z,42.066667
2023-09-08T09:55:17.787Z,42.316667
2023-09-08T10:00:17.912Z,41.912500
2023-09-08T10:05:17.991Z,40.708333
2023-09-08T10:10:17.789Z,40.050000
2023-09-08T10:20:18.433Z,40.333333
2023-09-08T10:25:17.764Z,38.633333
2023-09-08T10:30:17.964Z,38.270833
2023-09-08T10:35:17.847Z,37.700000
2023-09-08T10:40:17.747Z,38.312500
2023-09-08T10:45:18.152Z,37.920833
2023-09-08T10:50:18.011Z,37.683333
2023-09-08T10:55:18.602Z,37.512500
2023-09-08T11:00:18.031Z,37.850000
2023-09-08T11:05:18.066Z,37.679167
2023-09-08T11:10:18.174Z,36.887500
2023-09-08T11:15:17.730Z,36.708333
2023-09-08T11:20:17.912Z,36.087500
2023-09-08T11:25:18.109Z,36.012500
2023-09-08T11:30:18.413Z,36.262500
2023-09-08T11:35:17.702Z,34.833333
2023-09-08T11:40:18.132Z,35.158333
2023-09-08T11:45:17.797Z,34.716667
2023-09-08T11:50:18.095Z,34.533333
2023-09-08T11:55:18.039Z,34.175000
2023-09-08T12:00:17.792Z,34.154167
2023-09-08T12:05:17.859Z,33.354167
2023-09-08T12:10:17.854Z,34.062500
2023-09-08T12:15:17.816Z,34.495833
2023-09-08T12:20:17.922Z,34.291667
2023-09-08T12:25:17.879Z,32.983333
2023-09-08T12:30:17.715Z,32.154167
2023-09-08T12:35:17.694Z,31.729167
2023-09-08T12:40:17.942Z,31.470833
2023-09-08T12:45:17.674Z,31.083333
2023-09-08T12:50:17.985Z,30.887500
2023-09-08T12:55:17.817Z,30.316667
2023-09-08T13:00:17.683Z,30.816667
2023-09-08T13:05:17.721Z,30.579167
2023-09-08T13:10:18.010Z,30.770833
2023-09-08T13:15:18.029Z,30.650000
2023-09-08T13:20:18.283Z,30.887500
2023-09-08T13:25:18.106Z,30.708333
2023-09-08T13:30:17.786Z,30.245833
2023-09-08T13:35:18.510Z,31.112500
2023-09-08T13:40:18.409Z,30.225000
2023-09-08T13:45:17.720Z,31.508333
2023-09-08T13:50:18.605Z,31.988000
2023-09-08T13:55:38.317Z,31.295833
2023-09-08T14:00:22.711Z,31.770833
2023-09-08T14:05:20.381Z,32.412500
2023-09-08T14:10:28.852Z,31.933333
2023-09-08T14:15:17.737Z,31.854167
2023-09-08T14:20:18.093Z,31.650000
2023-09-08T14:25:17.774Z,32.000000
2023-09-08T14:30:17.791Z,31.145833
2023-09-08T14:35:17.746Z,31.441667
2023-09-08T14:40:17.720Z,31.366667
2023-09-08T14:45:17.724Z,31.570833
2023-09-08T14:50:17.672Z,31.825000
2023-09-08T14:55:18.026Z,31.791667
2023-09-08T15:00:17.836Z,32.141667
2023-09-08T15:05:17.642Z,32.008000
2023-09-08T15:10:17.747Z,31.941667
2023-09-08T15:15:17.660Z,31.916667
2023-09-08T15:20:17.830Z,32.320833
2023-09-08T15:25:17.617Z,32.320833
2023-09-08T15:30:17.656Z,32.600000
2023-09-08T15:35:17.783Z,32.570833
2023-09-08T15:40:17.914Z,32.729167
2023-09-08T15:45:17.711Z,32.987500
2023-09-08T15:50:17.641Z,33.783333
2023-09-08T15:55:18.287Z,34.364000
2023-09-08T16:00:17.750Z,34.487500
2023-09-08T16:05:18.059Z,34.633333
2023-09-08T16:10:17.732Z,35.412500
2023-09-08T16:15:17.656Z,36.345833
2023-09-08T16:20:19.944Z,37.129167
2023-09-08T16:25:17.652Z,37.591667
2023-09-08T16:30:17.864Z,38.004167
2023-09-08T16:35:17.623Z,38.408333
2023-09-08T16:40:17.765Z,39.450000
2023-09-08T16:45:17.777Z,40.554167
2023-09-08T16:50:17.872Z,42.148000
2023-09-08T16:55:17.691Z,44.020833
2023-09-08T17:00:18.153Z,44.825000
2023-09-08T17:05:18.303Z,45.445833
2023-09-08T17:10:18.595Z,46.229167
2023-09-08T17:15:17.785Z,47.533333
2023-09-08T17:20:17.837Z,49.566667
2023-09-08T17:25:18.001Z,50.625000
2023-09-08T17:30:17.675Z,55.583333
2023-09-08T17:35:17.817Z,58.608333
2023-09-08T17:40:17.607Z,60.129167
2023-09-08T17:45:17.702Z,61.596000
2023-09-08T17:50:17.575Z,63.233333
2023-09-08T17:55:17.865Z,63.729167
2023-09-08T18:00:17.728Z,65.429167
2023-09-08T18:05:18.065Z,66.283333
2023-09-08T18:10:17.723Z,67.275000
2023-09-08T18:15:17.675Z,67.733333
2023-09-08T18:20:17.871Z,69.016667
2023-09-08T18:25:17.709Z,69.900000
2023-09-08T18:30:17.600Z,71.066667
2023-09-08T18:35:17.688Z,71.333333
2023-09-08T18:40:17.840Z,72.700000
2023-09-08T18:45:17.606Z,73.204000
2023-09-08T18:50:18.048Z,74.012500
2023-09-08T18:55:17.700Z,72.883333
2023-09-08T19:00:17.714Z,73.116667
2023-09-08T19:05:17.743Z,73.129167
2023-09-08T19:10:17.683Z,75.033333
2023-09-08T19:15:17.881Z,75.650000
2023-09-08T19:20:18.084Z,76.841667
2023-09-08T19:25:18.567Z,76.666667
2023-09-08T19:30:17.747Z,77.954167
2023-09-08T19:35:17.634Z,78.979167
2023-09-08T19:40:18.257Z,79.258333
2023-09-08T19:45:17.594Z,79.604167
2023-09-08T19:50:17.568Z,79.791667
2023-09-08T19:55:17.601Z,81.866667
2023-09-08T20:00:17.877Z,82.937500
2023-09-08T20:05:17.662Z,82.600000
2023-09-08T20:10:17.701Z,82.775000
2023-09-08T20:15:17.560Z,83.812500
2023-09-08T20:20:17.713Z,82.120833
2023-09-08T20:25:17.954Z,84.225000
2023-09-08T20:30:17.773Z,85.137500
2023-09-08T20:35:17.728Z,85.629167
2023-09-08T20:40:17.549Z,85.366667
2023-09-08T20:45:18.324Z,85.916667
2023-09-08T20:50:17.745Z,86.654167
2023-09-08T20:55:17.686Z,85.700000
2023-09-08T21:00:17.656Z,87.279167
2023-09-08T21:05:17.808Z,87.379167
2023-09-08T21:10:17.534Z,88.337500
2023-09-08T21:15:17.746Z,87.200000
2023-09-08T21:20:18.084Z,89.070833
2023-09-08T21:25:17.923Z,88.695833
2023-09-08T21:30:17.477Z,88.616667
2023-09-08T21:35:17.615Z,88.945833
2023-09-08T21:40:17.548Z,88.554167
2023-09-08T21:45:17.952Z,89.883333
2023-09-08T21:50:17.484Z,89.316667
2023-09-08T21:55:17.886Z,89.162500
2023-09-08T22:00:18.480Z,90.291667
2023-09-08T22:05:17.964Z,89.708333
2023-09-08T22:10:17.910Z,89.908333
2023-09-08T22:15:17.541Z,90.666667
2023-09-08T22:20:18.023Z,91.166667
2023-09-08T22:25:18.316Z,90.404167
2023-09-08T22:30:17.715Z,90.275000
2023-09-08T22:35:17.758Z,89.987500
2023-09-08T22:40:17.826Z,90.900000
2023-09-08T22:45:17.661Z,90.533333
2023-09-08T22:50:17.783Z,91.495833
2023-09-08T22:55:25.688Z,91.166667
2023-09-08T23:00:17.878Z,90.541667
2023-09-08T23:05:17.569Z,91.583333
2023-09-08T23:10:17.805Z,90.562500
2023-09-08T23:15:17.516Z,91.583333
2023-09-08T23:20:17.734Z,91.820833
2023-09-08T23:25:17.520Z,91.295833
2023-09-08T23:30:17.748Z,91.500000
2023-09-08T23:35:17.702Z,91.870833
2023-09-08T23:40:17.858Z,91.175000
2023-09-08T23:45:17.614Z,91.758333
2023-09-08T23:50:17.540Z,92.154167
2023-09-08T23:55:17.677Z,91.608333
